Time;durP1;ratioP1;P1;durP2;ratioP2;P2;SDS_P1;SDS_P2;PMS_P1;PMS_P2;Temp;Humidity;BMP_temperature;BMP_pressure;BME280_temperature;BME280_humidity;BME280_pressure;Samples;Min_cycle;Max_cycle;Signal;HPM_P1;HPM_P2
2023/06/20 00:00:52;;;;;;;7.35;4.85;;;;;;;;;;5068759;27;98655;-75
2023/06/20 00:03:19;;;;;;;5.65;5.03;;;;;;;;;;5069131;27;100016;-75
2023/06/20 00:05:45;;;;;;;6.32;4.80;;;;;;;;;;5068254;27;98263;-75
2023/06/20 00:08:12;;;;;;;5.78;4.97;;;;;;;;;;5068577;27;99463;-75
2023/06/20 00:10:38;;;;;;;7.45;5.75;;;;;;;;;;5069278;27;100044;-75
2023/06/20 00:13:04;;;;;;;7.68;5.20;;;;;;;;;;5080633;27;98320;-75
2023/06/20 00:15:31;;;;;;;5.25;4.78;;;;;;;;;;5079249;27;99453;-75
2023/06/20 00:18:00;;;;;;;6.18;4.90;;;;;;;;;;5072233;27;100341;-75
2023/06/20 00:20:27;;;;;;;6.78;5.25;;;;;;;;;;5066472;27;98598;-75
2023/06/20 00:22:54;;;;;;;17.13;5.25;;;;;;;;;;5069084;27;99268;-75
2023/06/20 00:25:21;;;;;;;8.35;5.03;;;;;;;;;;5068860;27;98286;-75
2023/06/20 00:27:48;;;;;;;6.65;4.28;;;;;;;;;;5067646;27;98582;-74
2023/06/20 00:30:15;;;;;;;5.32;4.82;;;;;;;;;;5068814;27;99259;-75
2023/06/20 00:32:41;;;;;;;5.13;4.63;;;;;;;;;;5069677;27;98306;-75
2023/06/20 00:35:08;;;;;;;6.88;4.75;;;;;;;;;;5068148;27;99074;-75
2023/06/20 00:37:37;;;;;;;6.72;4.57;;;;;;;;;;5069399;27;99899;-75
2023/06/20 00:40:08;;;;;;;7.22;5.10;;;;;;;;;;5074021;27;98201;-76
2023/06/20 00:42:35;;;;;;;5.05;4.55;;;;;;;;;;5069485;27;98812;-75
2023/06/20 00:45:01;;;;;;;7.13;5.20;;;;;;;;;;5070986;27;98199;-75
2023/06/20 00:47:28;;;;;;;5.82;5.22;;;;;;;;;;5069257;27;98274;-75
2023/06/20 00:49:55;;;;;;;9.38;5.30;;;;;;;;;;5049288;27;99189;-75
2023/06/20 00:52:21;;;;;;;6.40;5.43;;;;;;;;;;5069320;27;98176;-75
2023/06/20 00:54:48;;;;;;;6.07;4.78;;;;;;;;;;5050597;27;100491;-76
2023/06/20 00:57:17;;;;;;;5.43;4.90;;;;;;;;;;5049649;27;100283;-74
2023/06/20 00:59:45;;;;;;;9.73;5.55;;;;;;;;;;5069062;27;98227;-76
2023/06/20 01:02:14;;;;;;;5.35;4.57;;;;;;;;;;5071438;27;98362;-74
2023/06/20 01:04:45;;;;;;;5.10;4.45;;;;;;;;;;5067453;27;98152;-74
2023/06/20 01:07:18;;;;;;;5.18;4.78;;;;;;;;;;5067177;27;98388;-74
2023/06/20 01:09:51;;;;;;;7.60;4.97;;;;;;;;;;5067701;27;98887;-74
2023/06/20 01:12:24;;;;;;;6.43;4.93;;;;;;;;;;5049811;27;99277;-74
2023/06/20 01:14:59;;;;;;;7.47;4.90;;;;;;;;;;5057829;27;100990;-74
2023/06/20 01:17:31;;;;;;;5.53;4.95;;;;;;;;;;5068029;27;99360;-75
2023/06/20 01:20:10;;;;;;;9.35;5.40;;;;;;;;;;5068543;27;98211;-75
2023/06/20 01:22:41;;;;;;;5.93;5.32;;;;;;;;;;5069143;27;98381;-75
2023/06/20 01:25:10;;;;;;;6.15;4.53;;;;;;;;;;5051851;27;101276;-75
2023/06/20 01:27:40;;;;;;;6.13;4.68;;;;;;;;;;5068788;27;98527;-76
2023/06/20 01:30:09;;;;;;;4.82;4.43;;;;;;;;;;5067303;27;98801;-73
2023/06/20 01:32:37;;;;;;;4.65;4.28;;;;;;;;;;5048382;27;98310;-75
2023/06/20 01:35:07;;;;;;;4.55;4.15;;;;;;;;;;5068568;27;99360;-74
2023/06/20 01:37:35;;;;;;;5.38;4.75;;;;;;;;;;5068238;27;99927;-76
2023/06/20 01:40:07;;;;;;;5.55;5.03;;;;;;;;;;5049462;27;98315;-76
2023/06/20 01:42:34;;;;;;;6.18;5.38;;;;;;;;;;5073725;27;98409;-76
2023/06/20 01:45:02;;;;;;;8.10;5.03;;;;;;;;;;5077393;27;100434;-74
2023/06/20 01:47:31;;;;;;;7.53;5.18;;;;;;;;;;5089183;27;98389;-75
2023/06/20 01:49:59;;;;;;;5.45;4.47;;;;;;;;;;5088158;27;98719;-76
2023/06/20 01:52:26;;;;;;;5.90;5.40;;;;;;;;;;5058313;27;98251;-75
2023/06/20 01:54:53;;;;;;;5.18;4.68;;;;;;;;;;5067345;27;98295;-74
2023/06/20 01:57:21;;;;;;;5.10;4.70;;;;;;;;;;5067768;27;98798;-75
2023/06/20 01:59:49;;;;;;;5.35;4.95;;;;;;;;;;5063287;27;98434;-75
2023/06/20 02:02:17;;;;;;;5.05;4.60;;;;;;;;;;5088175;27;99303;-76
2023/06/20 02:04:45;;;;;;;7.75;5.53;;;;;;;;;;5069520;27;101652;-75
2023/06/20 02:07:12;;;;;;;7.43;5.28;;;;;;;;;;5090800;27;98277;-75
2023/06/20 02:09:39;;;;;;;8.02;5.65;;;;;;;;;;5088483;27;98767;-75
2023/06/20 02:12:06;;;;;;;5.68;4.90;;;;;;;;;;5088513;27;98525;-76
2023/06/20 02:14:35;;;;;;;6.55;5.35;;;;;;;;;;5069100;27;100387;-75
2023/06/20 02:17:02;;;;;;;9.02;5.50;;;;;;;;;;5069232;27;101528;-75
2023/06/20 02:19:29;;;;;;;5.72;5.18;;;;;;;;;;5087478;27;98248;-75
2023/06/20 02:21:56;;;;;;;6.07;5.00;;;;;;;;;;5087439;27;98279;-75
2023/06/20 02:24:23;;;;;;;7.35;5.38;;;;;;;;;;5069587;27;100094;-76
2023/06/20 02:26:52;;;;;;;11.85;5.00;;;;;;;;;;5069896;27;98692;-76
2023/06/20 02:29:19;;;;;;;11.05;5.40;;;;;;;;;;5078760;27;98378;-75
2023/06/20 02:31:47;;;;;;;9.75;5.05;;;;;;;;;;5067185;27;98328;-76
2023/06/20 02:34:17;;;;;;;5.38;4.78;;;;;;;;;;5066646;27;98706;-75
2023/06/20 02:36:44;;;;;;;19.10;5.03;;;;;;;;;;5067625;27;99135;-74
2023/06/20 02:39:11;;;;;;;6.70;5.22;;;;;;;;;;5067325;27;98788;-74
2023/06/20 02:41:41;;;;;;;5.38;4.97;;;;;;;;;;5048547;27;98630;-74
2023/06/20 02:44:07;;;;;;;5.45;4.95;;;;;;;;;;5068011;27;98743;-74
2023/06/20 02:46:50;;;;;;;9.48;5.40;;;;;;;;;;5070565;27;98104;-75
2023/06/20 02:49:22;;;;;;;6.43;5.82;;;;;;;;;;5070186;27;98537;-75
2023/06/20 02:51:58;;;;;;;6.30;5.70;;;;;;;;;;5074160;27;98762;-75
2023/06/20 02:54:28;;;;;;;10.75;5.60;;;;;;;;;;5052528;27;99581;-75
2023/06/20 02:56:56;;;;;;;6.68;5.05;;;;;;;;;;5070072;27;100576;-75
2023/06/20 02:59:25;;;;;;;6.28;5.38;;;;;;;;;;5063067;27;98281;-75
2023/06/20 03:01:56;;;;;;;5.82;5.20;;;;;;;;;;5073011;27;101254;-75
2023/06/20 03:04:25;;;;;;;8.27;5.00;;;;;;;;;;5071865;27;99911;-75
2023/06/20 03:06:52;;;;;;;8.50;5.03;;;;;;;;;;5090717;27;100966;-75
2023/06/20 03:09:21;;;;;;;5.97;4.95;;;;;;;;;;5070875;27;101750;-75
2023/06/20 03:11:47;;;;;;;7.15;5.57;;;;;;;;;;5072082;27;102038;-75
2023/06/20 03:14:14;;;;;;;7.95;5.63;;;;;;;;;;5075554;27;98261;-75
2023/06/20 03:16:43;;;;;;;5.70;5.20;;;;;;;;;;5090297;27;98883;-75
2023/06/20 03:19:10;;;;;;;5.65;4.97;;;;;;;;;;5071188;27;98212;-75
2023/06/20 03:21:38;;;;;;;6.03;5.43;;;;;;;;;;5069307;27;100637;-75
2023/06/20 03:24:06;;;;;;;10.43;6.32;;;;;;;;;;5071053;27;100869;-75
2023/06/20 03:26:33;;;;;;;6.03;5.40;;;;;;;;;;5072476;27;98289;-75
2023/06/20 03:28:59;;;;;;;9.95;5.70;;;;;;;;;;5089893;27;98550;-75
2023/06/20 03:31:26;;;;;;;5.43;4.80;;;;;;;;;;5070386;27;101058;-75
2023/06/20 03:33:53;;;;;;;6.13;5.53;;;;;;;;;;5071424;27;98288;-74
2023/06/20 03:36:19;;;;;;;7.22;6.13;;;;;;;;;;5093615;27;98793;-75
2023/06/20 03:38:46;;;;;;;7.22;5.22;;;;;;;;;;5071426;27;99105;-75
2023/06/20 03:41:14;;;;;;;10.38;5.90;;;;;;;;;;5090260;27;99312;-75
2023/06/20 03:43:41;;;;;;;6.78;5.50;;;;;;;;;;5071816;27;101424;-76
2023/06/20 03:46:07;;;;;;;6.55;5.95;;;;;;;;;;5070819;27;99743;-76
2023/06/20 03:48:34;;;;;;;8.02;6.07;;;;;;;;;;5071835;27;98365;-76
2023/06/20 03:51:04;;;;;;;11.85;6.55;;;;;;;;;;5069249;27;98940;-76
2023/06/20 03:53:31;;;;;;;7.55;6.80;;;;;;;;;;5069307;27;98556;-76
2023/06/20 03:55:57;;;;;;;7.55;6.22;;;;;;;;;;5054021;27;99707;-76
2023/06/20 03:58:24;;;;;;;9.23;6.53;;;;;;;;;;5050113;27;98412;-76
2023/06/20 04:00:50;;;;;;;6.82;6.25;;;;;;;;;;5051393;27;100766;-76
2023/06/20 04:03:17;;;;;;;7.20;5.95;;;;;;;;;;5069401;27;98883;-76
2023/06/20 04:05:43;;;;;;;7.15;6.32;;;;;;;;;;5050652;27;98253;-75
2023/06/20 04:08:10;;;;;;;9.75;6.65;;;;;;;;;;5050370;27;100411;-76
2023/06/20 04:10:39;;;;;;;16.27;6.63;;;;;;;;;;5069345;27;99990;-76
2023/06/20 04:13:06;;;;;;;7.72;6.40;;;;;;;;;;5069822;27;99616;-76
2023/06/20 04:15:33;;;;;;;6.85;5.88;;;;;;;;;;5051013;27;99426;-76
2023/06/20 04:17:59;;;;;;;14.80;6.32;;;;;;;;;;5072150;27;100042;-75
2023/06/20 04:20:29;;;;;;;9.30;6.03;;;;;;;;;;5068687;27;98279;-75
2023/06/20 04:22:56;;;;;;;7.13;6.43;;;;;;;;;;5049284;27;101376;-75
2023/06/20 04:25:23;;;;;;;9.48;6.30;;;;;;;;;;5050906;27;98866;-75
2023/06/20 04:27:53;;;;;;;7.63;6.47;;;;;;;;;;5068903;27;99298;-75
2023/06/20 04:30:22;;;;;;;8.15;6.45;;;;;;;;;;5050669;27;99103;-75
2023/06/20 04:32:50;;;;;;;6.85;6.20;;;;;;;;;;5050796;27;98234;-75
2023/06/20 04:35:17;;;;;;;8.70;6.70;;;;;;;;;;5049685;27;98499;-75
2023/06/20 04:37:44;;;;;;;8.10;6.68;;;;;;;;;;5068935;27;98961;-75
2023/06/20 04:40:12;;;;;;;8.65;6.25;;;;;;;;;;5054075;27;98316;-75
2023/06/20 04:42:39;;;;;;;8.02;6.25;;;;;;;;;;5049696;27;101122;-75
2023/06/20 04:45:05;;;;;;;13.88;6.72;;;;;;;;;;5068740;27;98375;-75
2023/06/20 04:47:32;;;;;;;7.10;6.50;;;;;;;;;;5049329;27;99501;-76
2023/06/20 04:50:03;;;;;;;6.88;5.95;;;;;;;;;;5062350;27;100141;-75
2023/06/20 04:52:32;;;;;;;11.07;6.88;;;;;;;;;;5070217;27;98162;-75
2023/06/20 04:55:04;;;;;;;8.38;6.75;;;;;;;;;;5088531;27;98424;-75
2023/06/20 04:57:33;;;;;;;10.50;5.88;;;;;;;;;;5070150;27;99340;-75
2023/06/20 05:00:00;;;;;;;7.78;6.15;;;;;;;;;;5089290;27;98199;-75
2023/06/20 05:02:26;;;;;;;6.78;6.07;;;;;;;;;;5090940;27;98353;-75
2023/06/20 05:04:53;;;;;;;8.20;6.35;;;;;;;;;;5089409;27;98216;-75
2023/06/20 05:07:21;;;;;;;8.05;6.75;;;;;;;;;;5087807;27;100624;-76
2023/06/20 05:09:49;;;;;;;7.38;6.50;;;;;;;;;;5069614;27;100937;-75
2023/06/20 05:12:15;;;;;;;7.32;6.63;;;;;;;;;;5079327;27;99060;-76
2023/06/20 05:14:42;;;;;;;6.95;6.25;;;;;;;;;;5068203;27;98451;-76
2023/06/20 05:17:09;;;;;;;8.32;6.57;;;;;;;;;;5066059;27;98942;-75
2023/06/20 05:19:35;;;;;;;6.97;6.28;;;;;;;;;;5068394;27;98485;-75
2023/06/20 05:22:02;;;;;;;8.10;6.70;;;;;;;;;;5067240;27;98389;-75
2023/06/20 05:24:28;;;;;;;9.98;6.18;;;;;;;;;;5070661;27;99967;-75
2023/06/20 05:26:55;;;;;;;14.43;7.50;;;;;;;;;;5068197;27;99385;-76
2023/06/20 05:29:21;;;;;;;10.13;6.55;;;;;;;;;;5067931;27;99011;-76
2023/06/20 05:31:47;;;;;;;9.18;7.22;;;;;;;;;;5067684;27;98334;-76
2023/06/20 05:34:14;;;;;;;8.35;6.78;;;;;;;;;;5068109;27;99320;-76
2023/06/20 05:36:46;;;;;;;7.15;6.47;;;;;;;;;;5066785;27;99093;-76
2023/06/20 05:39:13;;;;;;;12.30;7.30;;;;;;;;;;5067070;27;98437;-76
2023/06/20 05:41:41;;;;;;;11.30;7.40;;;;;;;;;;5068124;27;99372;-76
2023/06/20 05:44:08;;;;;;;8.75;7.35;;;;;;;;;;5066472;27;99196;-76
2023/06/20 05:46:34;;;;;;;8.07;7.10;;;;;;;;;;5071315;27;98096;-75
2023/06/20 05:49:01;;;;;;;11.90;8.00;;;;;;;;;;5067528;27;99994;-75
2023/06/20 05:51:29;;;;;;;9.57;7.15;;;;;;;;;;5066344;27;99246;-75
2023/06/20 05:53:57;;;;;;;9.32;7.63;;;;;;;;;;5067486;27;98626;-75
2023/06/20 05:56:23;;;;;;;8.50;7.60;;;;;;;;;;5066914;27;99355;-75
2023/06/20 05:58:50;;;;;;;13.95;7.43;;;;;;;;;;5066905;27;98255;-75
2023/06/20 06:01:16;;;;;;;8.13;7.43;;;;;;;;;;5066675;27;99456;-75
2023/06/20 06:03:43;;;;;;;8.50;7.20;;;;;;;;;;5066676;27;98798;-75
2023/06/20 06:06:10;;;;;;;11.75;8.60;;;;;;;;;;5070184;27;98208;-75
2023/06/20 06:08:36;;;;;;;9.10;6.88;;;;;;;;;;5066150;27;98892;-75
2023/06/20 06:11:02;;;;;;;7.95;7.15;;;;;;;;;;5066849;27;98734;-75
2023/06/20 06:13:29;;;;;;;7.90;7.10;;;;;;;;;;5066708;27;98980;-75
2023/06/20 06:15:55;;;;;;;7.72;6.90;;;;;;;;;;5067249;27;100015;-75
2023/06/20 06:18:26;;;;;;;9.63;6.93;;;;;;;;;;5068556;27;98225;-75
2023/06/20 06:20:52;;;;;;;8.45;7.22;;;;;;;;;;5070435;27;99340;-75
2023/06/20 06:23:19;;;;;;;7.47;6.88;;;;;;;;;;5070171;27;98878;-76
2023/06/20 06:25:46;;;;;;;9.13;7.70;;;;;;;;;;5069652;27;98267;-76
2023/06/20 06:28:12;;;;;;;8.23;7.07;;;;;;;;;;5073260;27;99749;-75
2023/06/20 06:30:38;;;;;;;9.30;6.22;;;;;;;;;;5071294;27;98076;-75
2023/06/20 06:33:07;;;;;;;9.82;7.10;;;;;;;;;;5070332;27;99965;-75
2023/06/20 06:35:34;;;;;;;7.45;6.63;;;;;;;;;;5069825;27;98803;-76
2023/06/20 06:38:01;;;;;;;8.50;7.05;;;;;;;;;;5070367;27;98255;-76
2023/06/20 06:40:27;;;;;;;9.85;6.88;;;;;;;;;;5070232;27;99525;-75
2023/06/20 06:42:54;;;;;;;6.60;6.03;;;;;;;;;;5085253;27;100168;-75
2023/06/20 06:45:20;;;;;;;11.02;6.35;;;;;;;;;;5072929;27;98263;-75
2023/06/20 06:47:47;;;;;;;7.43;6.70;;;;;;;;;;5090937;27;99240;-75
2023/06/20 06:50:14;;;;;;;10.10;6.70;;;;;;;;;;5075673;27;99988;-75
2023/06/20 06:52:40;;;;;;;246.40;44.13;;;;;;;;;;5070206;27;99381;-75
2023/06/20 06:55:07;;;;;;;7.00;6.40;;;;;;;;;;5069242;27;99119;-75
2023/06/20 06:57:33;;;;;;;8.48;6.97;;;;;;;;;;5070380;27;98424;-75
2023/06/20 07:00:00;;;;;;;7.00;6.45;;;;;;;;;;5070504;27;99548;-75
2023/06/20 07:02:27;;;;;;;26.02;9.13;;;;;;;;;;5090634;27;99952;-74
2023/06/20 07:04:53;;;;;;;11.48;6.60;;;;;;;;;;5090578;27;98453;-74
2023/06/20 07:07:20;;;;;;;10.82;7.07;;;;;;;;;;5091176;27;99587;-75
2023/06/20 07:09:46;;;;;;;10.43;6.57;;;;;;;;;;5090015;27;100233;-75
2023/06/20 07:12:14;;;;;;;8.63;6.75;;;;;;;;;;5093469;27;98249;-74
2023/06/20 07:14:40;;;;;;;12.27;7.05;;;;;;;;;;5089514;27;98858;-75
2023/06/20 07:17:06;;;;;;;8.80;7.20;;;;;;;;;;5089189;27;98358;-75
2023/06/20 07:19:33;;;;;;;10.57;6.80;;;;;;;;;;5090373;27;98802;-74
2023/06/20 07:21:59;;;;;;;12.82;6.88;;;;;;;;;;5090531;27;99949;-74
2023/06/20 07:24:26;;;;;;;10.40;7.43;;;;;;;;;;5089499;27;98958;-75
2023/06/20 07:26:52;;;;;;;8.27;7.20;;;;;;;;;;5091085;27;99545;-74
2023/06/20 07:29:19;;;;;;;8.98;7.38;;;;;;;;;;5089286;27;100120;-74
2023/06/20 07:31:45;;;;;;;9.93;7.32;;;;;;;;;;5076338;27;98274;-75
2023/06/20 07:34:12;;;;;;;8.10;7.15;;;;;;;;;;5071991;27;99908;-75
2023/06/20 07:36:38;;;;;;;9.07;7.40;;;;;;;;;;5069605;27;99211;-74
2023/06/20 07:39:06;;;;;;;9.02;8.18;;;;;;;;;;5068229;27;99352;-74
2023/06/20 07:41:32;;;;;;;13.55;8.38;;;;;;;;;;5068865;27;99043;-76
2023/06/20 07:43:58;;;;;;;10.05;7.65;;;;;;;;;;5068188;27;98263;-75
2023/06/20 07:46:26;;;;;;;8.95;8.07;;;;;;;;;;5069664;27;99127;-75
2023/06/20 07:48:52;;;;;;;10.27;7.70;;;;;;;;;;5068984;27;99348;-74
2023/06/20 07:51:18;;;;;;;10.00;8.38;;;;;;;;;;5067592;27;98408;-74
2023/06/20 07:53:45;;;;;;;9.73;8.35;;;;;;;;;;5069615;27;99671;-75
2023/06/20 07:56:11;;;;;;;8.57;7.78;;;;;;;;;;5072396;27;98394;-74
2023/06/20 07:58:39;;;;;;;8.90;8.10;;;;;;;;;;5068513;27;98606;-75
2023/06/20 08:01:06;;;;;;;9.18;8.13;;;;;;;;;;5081716;27;100114;-74
2023/06/20 08:03:33;;;;;;;9.52;8.50;;;;;;;;;;5089428;27;99121;-74
2023/06/20 08:05:59;;;;;;;14.55;8.50;;;;;;;;;;5088671;27;98616;-74
2023/06/20 08:08:26;;;;;;;10.82;7.63;;;;;;;;;;5089636;27;100234;-74
2023/06/20 08:10:52;;;;;;;10.15;7.72;;;;;;;;;;5089737;27;98331;-74
2023/06/20 08:13:18;;;;;;;9.10;8.30;;;;;;;;;;5089005;27;99681;-74
2023/06/20 08:15:45;;;;;;;15.75;7.93;;;;;;;;;;5093498;27;99762;-74
2023/06/20 08:18:11;;;;;;;9.57;8.57;;;;;;;;;;5089947;27;99310;-74
2023/06/20 08:20:38;;;;;;;9.38;8.48;;;;;;;;;;5088672;27;98991;-75
2023/06/20 08:23:04;;;;;;;11.00;8.48;;;;;;;;;;5089274;27;98213;-74
2023/06/20 08:25:31;;;;;;;11.73;8.48;;;;;;;;;;5089915;27;99723;-74
2023/06/20 08:27:57;;;;;;;14.38;8.48;;;;;;;;;;5087880;27;100254;-75
2023/06/20 08:30:39;;;;;;;8.10;7.30;;;;;;;;;;5080140;27;98123;-75
2023/06/20 08:33:06;;;;;;;8.20;7.40;;;;;;;;;;5067591;27;100005;-75
2023/06/20 08:35:32;;;;;;;7.32;6.72;;;;;;;;;;5068536;27;99173;-75
2023/06/20 08:37:59;;;;;;;9.25;6.25;;;;;;;;;;5071728;27;98396;-74
2023/06/20 08:40:25;;;;;;;6.72;6.03;;;;;;;;;;5067535;27;99240;-75
2023/06/20 08:42:55;;;;;;;8.65;6.38;;;;;;;;;;5067224;27;98263;-74
2023/06/20 08:45:22;;;;;;;9.43;5.63;;;;;;;;;;5069056;27;98802;-75
2023/06/20 08:47:48;;;;;;;5.65;5.30;;;;;;;;;;5068175;27;99903;-74
2023/06/20 08:50:15;;;;;;;5.65;5.15;;;;;;;;;;5067867;27;99473;-74
2023/06/20 08:52:46;;;;;;;6.78;4.63;;;;;;;;;;5085131;27;99590;-74
2023/06/20 08:55:15;;;;;;;10.18;5.40;;;;;;;;;;5086883;27;99374;-74
2023/06/20 08:57:45;;;;;;;4.63;4.15;;;;;;;;;;5088643;27;98221;-74
2023/06/20 09:00:19;;;;;;;6.65;3.85;;;;;;;;;;5092268;27;99571;-76
2023/06/20 09:02:46;;;;;;;4.20;3.80;;;;;;;;;;5088495;27;98222;-75
2023/06/20 09:05:13;;;;;;;5.25;4.85;;;;;;;;;;5089702;27;99541;-75
2023/06/20 09:07:41;;;;;;;7.32;5.05;;;;;;;;;;5088456;27;99837;-75
2023/06/20 09:10:08;;;;;;;11.85;4.25;;;;;;;;;;5088456;27;98269;-75
2023/06/20 09:12:44;;;;;;;4.82;4.03;;;;;;;;;;5088404;27;98609;-75
2023/06/20 09:15:12;;;;;;;4.40;4.00;;;;;;;;;;5088243;27;100246;-75
2023/06/20 09:17:39;;;;;;;4.30;3.97;;;;;;;;;;5087340;27;98290;-75
2023/06/20 09:20:07;;;;;;;5.68;5.18;;;;;;;;;;5068281;27;98672;-75
2023/06/20 09:22:36;;;;;;;5.20;4.80;;;;;;;;;;5069929;27;98870;-75
2023/06/20 09:25:03;;;;;;;4.97;4.60;;;;;;;;;;5067719;27;98786;-75
2023/06/20 09:27:35;;;;;;;4.90;4.50;;;;;;;;;;5067679;27;99148;-75
2023/06/20 09:30:03;;;;;;;5.05;3.92;;;;;;;;;;5066895;27;98413;-75
2023/06/20 09:32:48;;;;;;;4.70;4.32;;;;;;;;;;5067107;27;98769;-75
2023/06/20 09:35:14;;;;;;;4.22;3.85;;;;;;;;;;5067441;27;98934;-75
2023/06/20 09:37:42;;;;;;;5.20;3.60;;;;;;;;;;5067736;27;98239;-75
2023/06/20 09:40:10;;;;;;;4.20;3.90;;;;;;;;;;5067309;27;98711;-74
2023/06/20 09:42:40;;;;;;;4.50;4.15;;;;;;;;;;5066563;27;99065;-75
2023/06/20 09:45:07;;;;;;;3.85;3.55;;;;;;;;;;5069596;27;98276;-75
2023/06/20 09:47:34;;;;;;;4.68;3.75;;;;;;;;;;5067859;27;100163;-75
2023/06/20 09:50:19;;;;;;;6.82;3.30;;;;;;;;;;5066993;27;98574;-75
2023/06/20 09:52:47;;;;;;;5.80;4.00;;;;;;;;;;5066949;27;98685;-75
2023/06/20 09:55:14;;;;;;;3.90;3.70;;;;;;;;;;5067194;27;99140;-75
2023/06/20 09:57:59;;;;;;;9.95;3.72;;;;;;;;;;5067261;27;98865;-75
2023/06/20 10:00:27;;;;;;;3.38;3.17;;;;;;;;;;5068137;27;99457;-75
2023/06/20 10:02:58;;;;;;;4.05;3.63;;;;;;;;;;5067638;27;100016;-75
2023/06/20 10:05:25;;;;;;;;;;;;;;;;;;5070657;27;98825;-75
2023/06/20 10:07:57;;;;;;;6.43;3.83;;;;;;;;;;5065471;27;129495;-75
2023/06/20 10:10:25;;;;;;;4.10;3.70;;;;;;;;;;5067364;27;98313;-75
2023/06/20 10:12:52;;;;;;;3.72;3.42;;;;;;;;;;5066503;27;98902;-75
2023/06/20 10:15:20;;;;;;;4.03;3.83;;;;;;;;;;5066914;27;99198;-74
2023/06/20 10:17:47;;;;;;;4.18;3.97;;;;;;;;;;5066770;27;98267;-75
2023/06/20 10:20:27;;;;;;;6.13;4.13;;;;;;;;;;5066542;27;99341;-74
2023/06/20 10:22:58;;;;;;;4.53;4.22;;;;;;;;;;5088139;27;100016;-74
2023/06/20 10:25:27;;;;;;;5.47;4.38;;;;;;;;;;5067630;27;98231;-74
2023/06/20 10:27:57;;;;;;;4.40;4.10;;;;;;;;;;5070151;27;99315;-75
2023/06/20 10:30:42;;;;;;;10.03;4.23;;;;;;;;;;5067512;27;98294;-75
2023/06/20 10:33:15;;;;;;;7.38;3.90;;;;;;;;;;5065116;27;98698;-75
2023/06/20 10:35:55;;;;;;;6.88;4.00;;;;;;;;;;5067354;27;100093;-74
2023/06/20 10:38:22;;;;;;;4.78;4.30;;;;;;;;;;5067660;27;98325;-75
2023/06/20 10:41:04;;;;;;;4.22;3.90;;;;;;;;;;5066932;27;99920;-74
2023/06/20 10:43:45;;;;;;;4.15;3.85;;;;;;;;;;5066507;27;99049;-75
2023/06/20 10:46:11;;;;;;;7.38;4.38;;;;;;;;;;5083612;27;98279;-74
2023/06/20 10:48:38;;;;;;;3.67;3.42;;;;;;;;;;5086965;27;99187;-74
2023/06/20 10:51:05;;;;;;;8.35;4.25;;;;;;;;;;5090565;27;98957;-73
2023/06/20 10:53:31;;;;;;;5.70;4.25;;;;;;;;;;5085771;27;98532;-73
2023/06/20 10:55:58;;;;;;;4.85;4.55;;;;;;;;;;5087192;27;100052;-74
2023/06/20 10:58:24;;;;;;;4.60;4.20;;;;;;;;;;5086859;27;98197;-73
2023/06/20 11:00:58;;;;;;;3.38;3.08;;;;;;;;;;5080368;27;99593;-73
2023/06/20 11:03:25;;;;;;;5.00;2.92;;;;;;;;;;5065540;27;99053;-74
2023/06/20 11:05:54;;;;;;;3.15;2.83;;;;;;;;;;5069698;27;98220;-73
2023/06/20 11:08:22;;;;;;;2.63;2.42;;;;;;;;;;5069064;27;98630;-73
2023/06/20 11:10:48;;;;;;;4.05;3.08;;;;;;;;;;5069073;27;99064;-73
2023/06/20 11:13:14;;;;;;;5.35;3.05;;;;;;;;;;5073765;27;98271;-74
2023/06/20 11:15:41;;;;;;;6.43;3.25;;;;;;;;;;5069229;27;99744;-74
2023/06/20 11:18:08;;;;;;;4.05;3.17;;;;;;;;;;5070211;27;98314;-73
2023/06/20 11:20:39;;;;;;;2.40;2.30;;;;;;;;;;5070132;27;98493;-73
2023/06/20 11:23:06;;;;;;;5.68;2.60;;;;;;;;;;5068384;27;99942;-75
2023/06/20 11:25:34;;;;;;;3.03;2.72;;;;;;;;;;5070161;27;98260;-74
2023/06/20 11:28:07;;;;;;;2.75;2.55;;;;;;;;;;5069902;27;99168;-75
2023/06/20 11:30:35;;;;;;;5.80;2.55;;;;;;;;;;5069464;27;100169;-74
2023/06/20 11:33:08;;;;;;;2.40;2.20;;;;;;;;;;5069871;27;98288;-75
2023/06/20 11:35:51;;;;;;;2.55;2.40;;;;;;;;;;5085625;27;98793;-75
2023/06/20 11:38:20;;;;;;;2.60;2.40;;;;;;;;;;5089534;27;99310;-73
2023/06/20 11:40:47;;;;;;;2.90;2.70;;;;;;;;;;5090059;27;98742;-75
2023/06/20 11:43:21;;;;;;;3.33;2.78;;;;;;;;;;5088640;27;98997;-73
2023/06/20 11:45:48;;;;;;;2.88;2.60;;;;;;;;;;5090557;27;98280;-75
2023/06/20 11:48:15;;;;;;;2.38;2.28;;;;;;;;;;5088812;27;99020;-73
2023/06/20 11:50:42;;;;;;;2.85;2.53;;;;;;;;;;5089547;27;100133;-75
2023/06/20 11:53:25;;;;;;;2.80;2.60;;;;;;;;;;5082400;27;98242;-73
2023/06/20 11:55:52;;;;;;;4.35;2.05;;;;;;;;;;5069493;27;98490;-75
2023/06/20 11:58:20;;;;;;;2.40;2.30;;;;;;;;;;5071996;27;99943;-74
2023/06/20 12:00:57;;;;;;;4.75;2.63;;;;;;;;;;5069298;27;99391;-75
2023/06/20 12:03:24;;;;;;;2.75;2.38;;;;;;;;;;5069789;27;100168;-75
2023/06/20 12:05:51;;;;;;;5.65;2.63;;;;;;;;;;5068823;27;98254;-75
2023/06/20 12:08:17;;;;;;;3.63;3.25;;;;;;;;;;5067667;27;98614;-75
2023/06/20 12:10:48;;;;;;;2.25;2.08;;;;;;;;;;5068013;27;98927;-75
2023/06/20 12:13:15;;;;;;;2.10;2.00;;;;;;;;;;5067851;27;98271;-75
2023/06/20 12:15:44;;;;;;;2.45;2.30;;;;;;;;;;5069434;27;99563;-75
2023/06/20 12:18:11;;;;;;;2.20;2.10;;;;;;;;;;5071606;27;102177;-75
2023/06/20 12:20:37;;;;;;;6.10;2.00;;;;;;;;;;5069404;27;99484;-74
2023/06/20 12:23:25;;;;;;;4.00;2.17;;;;;;;;;;5069127;27;99122;-75
2023/06/20 12:25:51;;;;;;;6.72;2.17;;;;;;;;;;5068305;27;98282;-75
2023/06/20 12:28:17;;;;;;;4.10;2.65;;;;;;;;;;5067976;27;98634;-75
2023/06/20 12:30:44;;;;;;;8.63;2.55;;;;;;;;;;5069333;27;100005;-75
2023/06/20 12:33:11;;;;;;;2.58;2.30;;;;;;;;;;5067988;27;98650;-74
2023/06/20 12:35:38;;;;;;;2.28;2.17;;;;;;;;;;5068689;27;98542;-74
2023/06/20 12:38:04;;;;;;;2.40;2.30;;;;;;;;;;5067389;27;99046;-74
2023/06/20 12:40:30;;;;;;;4.38;2.72;;;;;;;;;;5071701;27;98397;-74
2023/06/20 12:42:57;;;;;;;2.35;2.25;;;;;;;;;;5068445;27;99994;-75
2023/06/20 12:45:23;;;;;;;2.17;2.08;;;;;;;;;;5068293;27;98798;-74
2023/06/20 12:47:50;;;;;;;5.57;2.33;;;;;;;;;;5068326;27;99483;-75
2023/06/20 12:50:16;;;;;;;2.63;2.30;;;;;;;;;;5067790;27;98863;-75
2023/06/20 12:52:43;;;;;;;2.70;2.50;;;;;;;;;;5069000;27;98217;-74
2023/06/20 12:55:09;;;;;;;2.33;2.22;;;;;;;;;;5088843;27;99755;-75
2023/06/20 12:57:36;;;;;;;3.65;2.35;;;;;;;;;;5089138;27;100124;-75
2023/06/20 13:00:04;;;;;;;2.88;2.53;;;;;;;;;;5084896;27;98135;-75
2023/06/20 13:02:31;;;;;;;1.75;1.70;;;;;;;;;;5071165;27;99629;-75
2023/06/20 13:04:57;;;;;;;2.17;1.98;;;;;;;;;;5067940;27;98270;-75
2023/06/20 13:07:24;;;;;;;2.13;2.03;;;;;;;;;;5067549;27;98725;-75
2023/06/20 13:09:50;;;;;;;2.55;2.03;;;;;;;;;;5067977;27;98921;-75
2023/06/20 13:12:19;;;;;;;3.83;2.00;;;;;;;;;;5069082;27;98298;-76
2023/06/20 13:14:47;;;;;;;2.22;2.03;;;;;;;;;;5067452;27;98506;-75
2023/06/20 13:17:32;;;;;;;3.47;2.33;;;;;;;;;;5068469;27;100270;-75
2023/06/20 13:19:59;;;;;;;3.38;2.33;;;;;;;;;;5068605;27;98251;-75
2023/06/20 13:22:27;;;;;;;2.65;2.20;;;;;;;;;;5067051;27;98859;-74
2023/06/20 13:24:54;;;;;;;1.77;1.67;;;;;;;;;;5071540;27;99790;-75
2023/06/20 13:27:21;;;;;;;2.17;2.08;;;;;;;;;;5067233;27;99675;-75
2023/06/20 13:29:47;;;;;;;1.90;1.80;;;;;;;;;;5067037;27;99251;-74
2023/06/20 13:32:13;;;;;;;2.20;1.95;;;;;;;;;;5067874;27;98285;-75
2023/06/20 13:34:40;;;;;;;1.70;1.60;;;;;;;;;;5068268;27;99651;-75
2023/06/20 13:37:07;;;;;;;2.75;1.92;;;;;;;;;;5066936;27;98989;-75
2023/06/20 13:39:33;;;;;;;2.13;1.98;;;;;;;;;;5067339;27;98772;-74
2023/06/20 13:42:00;;;;;;;1.90;1.80;;;;;;;;;;5073843;27;99318;-73
2023/06/20 13:44:26;;;;;;;3.58;2.20;;;;;;;;;;5087090;27;99136;-75
2023/06/20 13:46:53;;;;;;;2.72;2.00;;;;;;;;;;5090915;27;98284;-73
2023/06/20 13:49:19;;;;;;;2.13;1.85;;;;;;;;;;5086867;27;99063;-73
2023/06/20 13:51:46;;;;;;;2.10;2.00;;;;;;;;;;5087868;27;98193;-73
2023/06/20 13:54:12;;;;;;;2.95;2.55;;;;;;;;;;5087571;27;98998;-73
2023/06/20 13:56:39;;;;;;;2.05;1.95;;;;;;;;;;5086880;27;99231;-75
2023/06/20 13:59:05;;;;;;;3.42;2.20;;;;;;;;;;5088338;27;98186;-75
2023/06/20 14:01:32;;;;;;;1.85;1.75;;;;;;;;;;5088297;27;99153;-75
2023/06/20 14:04:01;;;;;;;3.10;1.90;;;;;;;;;;5087190;27;100045;-75
2023/06/20 14:06:28;;;;;;;4.40;1.70;;;;;;;;;;5087646;27;98215;-75
2023/06/20 14:08:54;;;;;;;1.80;1.70;;;;;;;;;;5090993;27;98479;-75
2023/06/20 14:11:21;;;;;;;1.90;1.67;;;;;;;;;;5085625;27;98252;-74
2023/06/20 14:13:47;;;;;;;2.30;2.03;;;;;;;;;;5066514;27;98737;-74
2023/06/20 14:16:14;;;;;;;3.95;1.70;;;;;;;;;;5065495;27;99170;-74
2023/06/20 14:18:40;;;;;;;1.75;1.65;;;;;;;;;;5066876;27;98227;-75
2023/06/20 14:21:06;;;;;;;2.22;2.08;;;;;;;;;;5049187;27;99545;-75
2023/06/20 14:23:33;;;;;;;1.90;1.70;;;;;;;;;;5066627;27;99180;-75
2023/06/20 14:25:59;;;;;;;2.53;1.83;;;;;;;;;;5066728;27;98247;-74
2023/06/20 14:28:27;;;;;;;2.78;1.60;;;;;;;;;;5071285;27;99408;-75
2023/06/20 14:30:53;;;;;;;4.90;1.60;;;;;;;;;;5069593;27;98248;-75
2023/06/20 14:33:20;;;;;;;1.98;1.85;;;;;;;;;;5069207;27;99313;-75
2023/06/20 14:35:47;;;;;;;2.92;1.80;;;;;;;;;;5066560;27;99202;-74
2023/06/20 14:38:14;;;;;;;5.35;1.95;;;;;;;;;;5067430;27;98264;-74
2023/06/20 14:40:40;;;;;;;3.17;1.80;;;;;;;;;;5068379;27;99606;-75
2023/06/20 14:43:06;;;;;;;1.77;1.67;;;;;;;;;;5069637;27;98874;-74
2023/06/20 14:45:33;;;;;;;3.20;1.70;;;;;;;;;;5070502;27;98160;-74